Time,TemperatureF,DewpointF,PressureIn,WindDirection,WindDirectionDegrees,WindSpeedMPH,WindSpeedGustMPH,Humidity,HourlyPrecipIn,Conditions,Clouds,dailyrainin,SoftwareType,DateUTC
2013-09-06 00:00:00,64.8,44.0,24.23,North,0,0.0,-999.0,47,0.00,,,0.00,,2013-09-06 07:00:00,
2013-09-06 01:00:00,63.4,43.2,24.23,North,0,0.0,-999.0,48,0.00,,,0.00,,2013-09-06 08:00:00,
2013-09-06 02:00:00,63.0,42.9,24.21,North,0,0.0,-999.0,48,0.00,,,0.00,,2013-09-06 09:00:00,
2013-09-06 03:00:00,62.3,42.8,24.21,North,0,0.0,-999.0,49,0.00,,,0.00,,2013-09-06 10:00:00,
2013-09-06 04:00:00,61.4,42.6,24.21,North,0,0.0,-999.0,50,0.00,,,0.00,,2013-09-06 11:00:00,
2013-09-06 05:00:00,61.0,41.1,24.20,North,0,0.0,-999.0,48,0.00,,,0.00,,2013-09-06 12:00:00,
2013-09-06 06:00:00,60.8,41.0,24.20,North,0,0.0,-999.0,48,0.00,,,0.00,,2013-09-06 13:00:00,
2013-09-06 07:05:00,60.8,41.0,24.20,North,0,0.0,-999.0,48,0.00,,,0.00,,2013-09-06 14:05:00,
2013-09-06 08:05:00,64.4,43.0,0.00,North,0,0.0,-999.0,46,0.00,,,0.00,,2013-09-06 15:05:00,
2013-09-06 09:05:00,71.6,42.4,0.00,North,0,0.0,-999.0,35,0.00,,,0.00,,2013-09-06 16:05:00,
2013-09-06 10:05:00,76.3,43.5,0.00,North,0,0.0,-999.0,31,0.00,,,0.00,,2013-09-06 17:05:00,
2013-09-06 11:05:00,78.1,42.1,0.00,North,0,0.0,-999.0,28,0.00,,,0.00,,2013-09-06 18:05:00,
2013-09-06 12:05:00,82.6,41.8,0.00,North,0,0.0,-999.0,24,0.00,,,0.00,,2013-09-06 19:05:00,
2013-09-06 13:05:00,83.9,42.9,0.00,North,0,0.0,-999.0,24,0.00,,,0.00,,2013-09-06 20:05:00,
2013-09-06 14:05:00,83.3,39.3,0.00,North,0,0.0,-999.0,21,0.00,,,0.00,,2013-09-06 21:05:00,
2013-09-06 15:05:00,82.4,39.5,0.00,North,0,0.0,-999.0,22,0.00,,,0.00,,2013-09-06 22:05:00,
2013-09-06 16:05:00,81.7,41.0,0.00,North,0,0.0,-999.0,24,0.00,,,0.00,,2013-09-06 23:05:00,
2013-09-06 17:05:00,79.0,39.8,0.00,North,0,0.0,-999.0,25,0.00,,,0.00,,2013-09-07 00:05:00,
2013-09-06 18:00:00,76.7,42.0,24.16,North,0,0.0,-999.0,29,0.00,,,0.00,,2013-09-07 01:00:00,
2013-09-06 19:00:00,72.7,44.8,24.16,North,0,0.0,-999.0,37,0.00,,,0.00,,2013-09-07 02:00:00,
2013-09-06 20:00:00,68.9,47.8,24.17,North,0,0.0,-999.0,47,0.00,,,0.00,,2013-09-07 03:00:00,
2013-09-06 21:00:00,67.1,41.3,24.18,North,0,0.0,-999.0,39,0.00,,,0.00,,2013-09-07 04:00:00,
2013-09-06 22:00:00,67.7,39.6,24.18,North,0,0.0,-999.0,36,0.00,,,0.00,,2013-09-07 05:00:00,
2013-09-06 23:00:00,66.8,42.3,24.19,North,0,0.0,-999.0,41,0.00,,,0.00,,2013-09-07 06:00:00,